Weather at Comandante Paschoal Patrocínio Filho Airport

Public forecast

Using degrees Celsius for public forecast. Weather courtesy of forecast.io.

Closest aviation weather report (METAR) to Comandante Paschoal Patrocínio Filho Airport

Closest report is Campo Fontenelle, 85.3 nm (158.0 km) WSW.

2024/06/20 12:00 (retrieved 1 hour ago)

SBYS 201200Z 13002KT CAVOK 15/10 Q1022

Closest aviation forecast (TAF) to Comandante Paschoal Patrocínio Filho Airport

Closest forecast is Campo Fontenelle, 85.3 nm (158.0 km) WSW.

2024/06/20 12:33 (retrieved 39 minutes ago)

TAF SBYS 200900Z 2012/2024 15006KT CAVOK TX28/2017Z TN16/2023Z BECMG 2018/2020 15006KT RMK PEG